createdAt,value
2022-10-20T00:01:42.289Z,98988.63
2022-10-20T00:04:31.189Z,98986.91
2022-10-20T00:07:18.872Z,98980.81
2022-10-20T00:10:07.571Z,98963.16
2022-10-20T00:12:55.054Z,98968.31
2022-10-20T00:15:49.962Z,98971.38
2022-10-20T00:18:37.865Z,98967.88
2022-10-20T00:21:29.642Z,98965.78
2022-10-20T00:24:17.153Z,98957.75
2022-10-20T00:27:04.933Z,98957.16
2022-10-20T00:29:52.588Z,98953.78
2022-10-20T00:32:40.108Z,98958.31
2022-10-20T00:35:28.076Z,98964.56
2022-10-20T00:41:13.648Z,98952.34
2022-10-20T00:44:03.789Z,98950.63
2022-10-20T00:46:51.174Z,98959.50
2022-10-20T00:49:39.220Z,98943.91
2022-10-20T00:52:27.205Z,98945.09
2022-10-20T00:55:21.941Z,98955.63
2022-10-20T00:58:10.405Z,98951.31
2022-10-20T01:01:00.909Z,98953.09
2022-10-20T01:03:52.171Z,98935.81
2022-10-20T01:06:41.313Z,98932.56
2022-10-20T01:09:30.011Z,98934.44
2022-10-20T01:12:30.298Z,98921.50
2022-10-20T01:15:31.212Z,98923.41
2022-10-20T01:18:27.131Z,98919.28
2022-10-20T01:21:54.194Z,98908.09
2022-10-20T01:24:56.755Z,98919.72
2022-10-20T01:27:48.512Z,98912.97
2022-10-20T01:30:47.064Z,98922.91
2022-10-20T01:33:44.892Z,98917.75
2022-10-20T01:36:40.290Z,98922.50
2022-10-20T01:39:37.782Z,98918.50
2022-10-20T01:42:29.654Z,98908.06
2022-10-20T01:45:24.407Z,98910.72
2022-10-20T01:48:20.599Z,98911.78
2022-10-20T01:51:10.930Z,98907.56
2022-10-20T01:53:59.978Z,98915.59
2022-10-20T01:57:09.722Z,98908.81
2022-10-20T02:00:08.995Z,98894.06
2022-10-20T02:03:26.622Z,98889.78
2022-10-20T02:06:44.864Z,98874.06
2022-10-20T02:09:44.396Z,98871.66
2022-10-20T02:12:45.481Z,98875.34
2022-10-20T02:15:40.127Z,98879.13
2022-10-20T02:18:34.876Z,98861.66
2022-10-20T02:21:22.607Z,98852.06
2022-10-20T02:24:11.509Z,98851.31
2022-10-20T02:27:04.829Z,98856.81
2022-10-20T02:29:58.298Z,98851.53
2022-10-20T02:32:50.195Z,98843.75
2022-10-20T02:35:43.205Z,98849.66
2022-10-20T02:38:31.050Z,98849.88
2022-10-20T02:41:22.119Z,98843.41
2022-10-20T02:44:10.062Z,98854.28
2022-10-20T02:46:57.468Z,98845.53
2022-10-20T02:49:48.710Z,98846.47
2022-10-20T02:52:38.051Z,98851.31
2022-10-20T02:55:28.722Z,98854.28
2022-10-20T02:58:16.243Z,98844.81
2022-10-20T03:01:05.749Z,98841.44
2022-10-20T03:03:58.675Z,98836.16
2022-10-20T03:06:46.514Z,98837.72
2022-10-20T03:09:35.416Z,98839.53
2022-10-20T03:12:23.366Z,98849.75
2022-10-20T03:15:11.872Z,98837.88
2022-10-20T03:18:01.232Z,98846.47
2022-10-20T03:20:51.843Z,98844.69
2022-10-20T03:23:39.463Z,98850.09
2022-10-20T03:26:28.434Z,98851.97
2022-10-20T03:29:16.450Z,98850.09
2022-10-20T03:32:06.194Z,98849.53
2022-10-20T03:35:01.405Z,98839.97
2022-10-20T03:37:50.888Z,98840.94
2022-10-20T03:40:42.921Z,98841.84
2022-10-20T03:43:32.413Z,98839.97
2022-10-20T03:46:19.967Z,98840.19
2022-10-20T03:49:07.451Z,98834.81
2022-10-20T03:52:11.171Z,98837.56
2022-10-20T03:54:59.352Z,98829.75
2022-10-20T03:57:47.650Z,98834.91
2022-10-20T04:00:44.621Z,98834.06
2022-10-20T04:03:34.658Z,98833.47
2022-10-20T04:06:22.542Z,98828.28
2022-10-20T04:09:10.362Z,98830.28
2022-10-20T04:11:58.296Z,98834.84
2022-10-20T04:15:06.714Z,98830.63
2022-10-20T04:17:58.396Z,98823.69
2022-10-20T04:20:46.621Z,98822.94
2022-10-20T04:23:34.589Z,98818.63
2022-10-20T04:26:25.687Z,98817.06
2022-10-20T04:29:32.112Z,98826.72
2022-10-20T04:32:20.988Z,98828.63
2022-10-20T04:35:35.592Z,98814.53
2022-10-20T04:38:27.186Z,98823.56
2022-10-20T04:41:14.621Z,98827.91
2022-10-20T04:44:02.680Z,98823.69
2022-10-20T04:46:50.428Z,98816.72
2022-10-20T04:49:38.121Z,98812.44
2022-10-20T04:52:26.992Z,98818.53
2022-10-20T04:55:15.032Z,98805.25
2022-10-20T04:58:02.825Z,98791.75
2022-10-20T05:00:50.404Z,98786.59
2022-10-20T05:03:38.560Z,98780.19
2022-10-20T05:06:29.067Z,98785.13
2022-10-20T05:09:18.535Z,98777.34
2022-10-20T05:12:06.413Z,98776.28
2022-10-20T05:14:53.835Z,98786.09
2022-10-20T05:17:41.472Z,98779.44
2022-10-20T05:20:33.517Z,98775.78
2022-10-20T05:23:28.706Z,98781.78
2022-10-20T05:26:19.693Z,98777.22
2022-10-20T05:29:14.586Z,98782.00
2022-10-20T05:32:05.231Z,98784.00
2022-10-20T05:35:03.028Z,98780.63
2022-10-20T05:37:51.161Z,98781.69
2022-10-20T05:40:38.902Z,98786.00
2022-10-20T05:43:27.620Z,98786.00
2022-10-20T05:46:15.230Z,98786.94
2022-10-20T05:49:04.657Z,98781.69
2022-10-20T05:51:52.589Z,98776.00
2022-10-20T05:54:40.087Z,98777.88
2022-10-20T05:57:27.539Z,98781.25
2022-10-20T06:00:18.699Z,98773.88
2022-10-20T06:03:06.562Z,98765.34
2022-10-20T06:05:59.019Z,98759.97
2022-10-20T06:08:46.764Z,98769.66
2022-10-20T06:11:38.321Z,98755.94
2022-10-20T06:14:27.049Z,98758.91
2022-10-20T06:17:16.257Z,98767.72
2022-10-20T06:20:03.982Z,98769.22
2022-10-20T06:22:51.285Z,98765.63
2022-10-20T06:25:38.994Z,98771.84
2022-10-20T06:28:26.484Z,98766.97
2022-10-20T06:31:17.199Z,98762.81
2022-10-20T06:34:09.524Z,98760.06
2022-10-20T06:36:57.233Z,98759.03
2022-10-20T06:39:44.557Z,98741.72
2022-10-20T06:42:32.275Z,98750.72
2022-10-20T06:45:20.092Z,98759.59
2022-10-20T06:48:07.902Z,98763.34
2022-10-20T06:51:00.677Z,98768.41
2022-10-20T06:53:48.211Z,98760.41
2022-10-20T06:56:38.060Z,98766.66
2022-10-20T06:59:28.089Z,98759.84
2022-10-20T07:02:16.282Z,98754.50
2022-10-20T07:05:04.894Z,98750.25
2022-10-20T07:07:55.458Z,98749.56
2022-10-20T07:10:42.808Z,98757.25
2022-10-20T07:13:32.488Z,98756.81
2022-10-20T07:16:23.480Z,98758.50
2022-10-20T07:19:11.227Z,98749.13
2022-10-20T07:21:59.474Z,98740.88
2022-10-20T07:24:51.241Z,98733.56
2022-10-20T07:27:38.898Z,98731.75
2022-10-20T07:30:26.360Z,98736.69
2022-10-20T07:33:13.922Z,98746.78
2022-10-20T07:36:01.993Z,98742.41
2022-10-20T07:38:49.990Z,98743.13
2022-10-20T07:41:43.875Z,98742.63
2022-10-20T07:44:31.469Z,98736.81
2022-10-20T07:47:19.102Z,98730.75
2022-10-20T07:50:07.981Z,98724.97
2022-10-20T07:52:55.801Z,98723.72
2022-10-20T07:55:43.304Z,98723.63
2022-10-20T07:58:32.741Z,98718.75
2022-10-20T08:01:20.619Z,98717.94
2022-10-20T08:04:08.524Z,98719.38
2022-10-20T08:06:56.024Z,98707.53
2022-10-20T08:12:36.730Z,98703.91
2022-10-20T08:15:25.831Z,98697.88
2022-10-20T08:18:16.919Z,98683.13
2022-10-20T08:21:10.585Z,98670.44
2022-10-20T08:23:58.229Z,98662.22
2022-10-20T08:26:45.517Z,98654.47
2022-10-20T08:29:35.693Z,98641.34
2022-10-20T08:32:24.829Z,98645.00
2022-10-20T08:35:12.800Z,98653.38
2022-10-20T08:38:01.533Z,98652.53
2022-10-20T08:40:48.877Z,98654.13
2022-10-20T08:43:42.847Z,98651.44
2022-10-20T08:46:34.479Z,98648.19
2022-10-20T08:49:27.507Z,98642.56
2022-10-20T08:52:18.850Z,98636.69
2022-10-20T08:55:28.373Z,98636.56
2022-10-20T08:58:20.721Z,98622.53
2022-10-20T09:01:21.169Z,98616.41
2022-10-20T09:04:26.882Z,98612.88
2022-10-20T09:07:26.907Z,98595.81
2022-10-20T09:10:30.046Z,98595.59
2022-10-20T09:13:24.586Z,98587.47
2022-10-20T09:21:31.748Z,98582.72
2022-10-20T09:28:21.656Z,98567.41
2022-10-20T09:31:34.364Z,98576.09
2022-10-20T09:34:28.024Z,98558.09
2022-10-20T09:37:20.988Z,98565.19
2022-10-20T09:40:16.239Z,98556.88
2022-10-20T09:43:12.323Z,98561.28
2022-10-20T09:46:08.025Z,98547.16
2022-10-20T09:48:57.323Z,98538.03
2022-10-20T09:51:49.267Z,98534.72
2022-10-20T09:54:38.867Z,98530.59
2022-10-20T09:57:26.846Z,98535.47
2022-10-20T10:00:36.715Z,98536.78
2022-10-20T10:03:25.645Z,98527.47
2022-10-20T10:06:32.793Z,98528.44
2022-10-20T10:09:32.538Z,98518.41
2022-10-20T10:12:21.806Z,98518.25
2022-10-20T10:15:30.564Z,98515.88
2022-10-20T10:18:39.357Z,98512.91
2022-10-20T10:21:34.083Z,98500.53
2022-10-20T10:24:46.379Z,98501.47
2022-10-20T10:27:39.079Z,98500.22
2022-10-20T10:30:34.292Z,98501.84
2022-10-20T10:33:33.036Z,98496.16
2022-10-20T10:36:42.829Z,98499.34
2022-10-20T10:40:50.514Z,98488.69
2022-10-20T10:43:18.749Z,98467.38
2022-10-20T10:46:09.543Z,98477.69
2022-10-20T10:49:29.240Z,98472.75
2022-10-20T10:52:42.968Z,98472.16
2022-10-20T10:55:54.660Z,98457.66
2022-10-20T10:58:53.317Z,98460.25
2022-10-20T11:02:03.769Z,98459.78
2022-10-20T11:05:25.771Z,98456.56
2022-10-20T11:08:41.590Z,98455.94
2022-10-20T11:11:44.423Z,98457.84
2022-10-20T11:14:51.022Z,98464.34
2022-10-20T11:17:59.794Z,98480.63
2022-10-20T11:21:24.278Z,98463.31
2022-10-20T11:25:04.632Z,98466.53
2022-10-20T11:27:52.826Z,98452.50
2022-10-20T11:30:41.819Z,98445.38
2022-10-20T11:33:46.667Z,98441.31
2022-10-20T11:36:41.456Z,98421.44
2022-10-20T11:39:40.498Z,98411.03
2022-10-20T11:42:41.846Z,98414.13
2022-10-20T11:45:50.461Z,98399.34
2022-10-20T11:48:45.423Z,98410.47
2022-10-20T11:52:22.062Z,98402.78
2022-10-20T11:55:50.323Z,98391.56
2022-10-20T11:59:21.081Z,98391.44
2022-10-20T12:02:54.317Z,98403.53
2022-10-20T12:06:34.037Z,98390.97
2022-10-20T12:10:03.425Z,98386.31
2022-10-20T12:13:06.707Z,98387.13
2022-10-20T12:15:55.195Z,98398.81
2022-10-20T12:19:16.355Z,98403.44
2022-10-20T12:22:08.339Z,98405.97
2022-10-20T12:25:39.693Z,98381.72
2022-10-20T12:28:43.962Z,98377.41
2022-10-20T12:32:24.917Z,98381.75
2022-10-20T12:35:59.470Z,98349.13
2022-10-20T12:38:52.204Z,98358.66
2022-10-20T12:41:56.177Z,98367.44
2022-10-20T12:44:47.684Z,98361.31
2022-10-20T12:47:39.561Z,98365.50
2022-10-20T12:50:38.345Z,98371.53
2022-10-20T12:53:30.864Z,98365.44
2022-10-20T12:56:22.341Z,98351.16
2022-10-20T12:59:40.072Z,98369.81
2022-10-20T13:02:52.645Z,98369.47
2022-10-20T13:05:47.124Z,98372.66
2022-10-20T13:08:37.116Z,98372.41
2022-10-20T13:11:54.944Z,98364.91
2022-10-20T13:14:57.532Z,98357.56
2022-10-20T13:17:58.723Z,98360.44
2022-10-20T13:20:55.437Z,98351.47
2022-10-20T13:23:49.032Z,98343.19
2022-10-20T13:26:48.477Z,98341.94
2022-10-20T13:29:44.617Z,98341.78
2022-10-20T13:32:53.834Z,98345.72
2022-10-20T13:36:05.933Z,98344.66
2022-10-20T13:39:03.152Z,98348.00
2022-10-20T13:42:06.392Z,98346.38
2022-10-20T13:45:08.456Z,98333.56
2022-10-20T13:48:14.348Z,98318.28
2022-10-20T13:51:13.321Z,98321.44
2022-10-20T13:54:07.309Z,98327.00
2022-10-20T13:56:56.159Z,98334.84
2022-10-20T13:59:58.307Z,98325.69
2022-10-20T14:02:59.863Z,98335.81
2022-10-20T14:05:47.191Z,98342.72
2022-10-20T14:08:47.304Z,98335.75
2022-10-20T14:11:44.029Z,98345.31
2022-10-20T14:14:34.711Z,98354.31
2022-10-20T14:17:29.042Z,98355.13
2022-10-20T14:20:23.265Z,98350.38
2022-10-20T14:23:17.498Z,98355.00
2022-10-20T14:26:24.363Z,98342.59
2022-10-20T14:29:18.339Z,98343.22
2022-10-20T14:32:07.607Z,98341.50
2022-10-20T14:34:59.643Z,98348.44
2022-10-20T14:38:06.042Z,98352.75
2022-10-20T14:40:56.787Z,98354.50
2022-10-20T14:43:49.871Z,98354.59
2022-10-20T14:46:40.945Z,98350.00
2022-10-20T14:49:35.594Z,98345.50
2022-10-20T14:52:31.547Z,98348.81
2022-10-20T14:55:43.406Z,98349.06
2022-10-20T14:58:43.222Z,98341.06
2022-10-20T15:01:36.629Z,98354.56
2022-10-20T15:04:30.005Z,98356.28
2022-10-20T15:07:24.559Z,98392.66
2022-10-20T15:10:19.026Z,98388.47
2022-10-20T15:13:06.862Z,98388.09
2022-10-20T15:15:55.076Z,98390.13
2022-10-20T15:18:45.187Z,98376.56
2022-10-20T15:21:32.586Z,98365.53
2022-10-20T15:24:20.353Z,98351.63
2022-10-20T15:27:15.983Z,98332.28
2022-10-20T15:30:03.505Z,98315.47
2022-10-20T15:32:51.823Z,98310.59
2022-10-20T15:35:44.824Z,98281.16
2022-10-20T15:38:32.079Z,98277.34
2022-10-20T15:41:23.472Z,98293.78
2022-10-20T15:44:17.459Z,98300.09
2022-10-20T15:47:05.029Z,98305.41
2022-10-20T15:49:52.828Z,98301.16
2022-10-20T15:52:49.601Z,98291.34
2022-10-20T15:55:42.764Z,98294.69
2022-10-20T15:58:30.529Z,98303.75
2022-10-20T16:01:21.101Z,98310.22
2022-10-20T16:04:19.224Z,98312.25
2022-10-20T16:07:06.646Z,98301.72
2022-10-20T16:09:55.517Z,98303.63
2022-10-20T16:12:43.747Z,98297.00
2022-10-20T16:15:31.571Z,98288.03
2022-10-20T16:18:18.858Z,98268.72
2022-10-20T16:21:08.072Z,98273.63
2022-10-20T16:23:55.651Z,98288.19
2022-10-20T16:26:44.644Z,98287.41
2022-10-20T16:29:32.244Z,98276.16
2022-10-20T16:32:20.211Z,98275.97
2022-10-20T16:35:08.651Z,98276.69
2022-10-20T16:37:56.654Z,98272.06
2022-10-20T16:40:44.290Z,98266.91
2022-10-20T16:43:33.606Z,98264.59
2022-10-20T16:46:21.429Z,98280.38
2022-10-20T16:49:09.136Z,98278.59
2022-10-20T16:51:57.235Z,98283.63
2022-10-20T16:54:45.029Z,98277.13
2022-10-20T16:57:38.659Z,98283.72
2022-10-20T17:00:27.797Z,98278.44
2022-10-20T17:03:19.523Z,98288.81
2022-10-20T17:06:09.856Z,98298.03
2022-10-20T17:09:00.618Z,98300.22
2022-10-20T17:11:48.307Z,98310.56
2022-10-20T17:14:35.759Z,98311.25
2022-10-20T17:17:24.580Z,98320.66
2022-10-20T17:20:12.767Z,98314.34
2022-10-20T17:23:05.361Z,98319.38
2022-10-20T17:26:00.843Z,98320.72
2022-10-20T17:28:49.569Z,98331.28
2022-10-20T17:31:39.204Z,98328.31
2022-10-20T17:34:28.559Z,98346.50
2022-10-20T17:37:16.109Z,98338.19
2022-10-20T17:40:03.819Z,98342.22
2022-10-20T17:42:52.186Z,98345.22
2022-10-20T17:45:39.755Z,98336.91
2022-10-20T17:48:27.961Z,98337.25
2022-10-20T17:51:20.507Z,98336.75
2022-10-20T17:54:11.051Z,98350.63
2022-10-20T17:56:59.436Z,98345.63
2022-10-20T17:59:53.327Z,98329.97
2022-10-20T18:02:51.793Z,98339.28
2022-10-20T18:05:46.450Z,98344.97
2022-10-20T18:08:35.869Z,98343.47
2022-10-20T18:11:34.804Z,98341.16
2022-10-20T18:14:24.420Z,98346.00
2022-10-20T18:17:18.182Z,98339.47
2022-10-20T18:20:12.912Z,98338.31
2022-10-20T18:23:02.165Z,98321.84
2022-10-20T18:25:51.387Z,98323.66
2022-10-20T18:28:51.068Z,98314.16
2022-10-20T18:31:55.950Z,98309.34
2022-10-20T18:34:51.984Z,98302.31
2022-10-20T18:37:44.741Z,98306.16
2022-10-20T18:40:35.081Z,98319.84
2022-10-20T18:43:25.581Z,98337.34
2022-10-20T18:46:15.409Z,98333.66
2022-10-20T18:49:09.911Z,98330.03
2022-10-20T18:52:00.621Z,98325.84
2022-10-20T18:54:47.977Z,98328.66
2022-10-20T18:57:39.353Z,98325.38
2022-10-20T19:00:28.731Z,98327.34
2022-10-20T19:03:26.217Z,98314.53
2022-10-20T19:06:19.557Z,98299.69
2022-10-20T19:09:16.545Z,98310.88
2022-10-20T19:12:09.654Z,98298.72
2022-10-20T19:15:03.675Z,98312.72
2022-10-20T19:18:00.765Z,98303.03
2022-10-20T19:20:59.518Z,98302.53
2022-10-20T19:23:56.481Z,98323.34
2022-10-20T19:26:56.760Z,98351.19
2022-10-20T19:29:49.863Z,98378.34
2022-10-20T19:32:40.394Z,98376.50
2022-10-20T19:35:35.433Z,98365.34
2022-10-20T19:38:25.355Z,98347.84
2022-10-20T19:41:15.876Z,98343.69
2022-10-20T19:44:03.683Z,98323.38
2022-10-20T19:46:55.368Z,98324.34
2022-10-20T19:49:43.343Z,98335.38
2022-10-20T19:52:36.641Z,98343.53
2022-10-20T19:55:24.438Z,98346.84
2022-10-20T19:58:13.972Z,98355.16
2022-10-20T20:01:04.042Z,98352.81
2022-10-20T20:03:51.861Z,98362.66
2022-10-20T20:06:39.693Z,98363.00
2022-10-20T20:09:30.026Z,98354.31
2022-10-20T20:12:17.594Z,98349.00
2022-10-20T20:15:07.801Z,98353.47
2022-10-20T20:17:56.620Z,98344.84
2022-10-20T20:20:47.155Z,98351.97
2022-10-20T20:23:47.710Z,98362.81
2022-10-20T20:26:50.163Z,98364.81
2022-10-20T20:29:47.693Z,98372.97
2022-10-20T20:32:37.110Z,98365.97
2022-10-20T20:35:28.391Z,98366.28
2022-10-20T20:38:19.243Z,98368.28
2022-10-20T20:41:15.898Z,98369.09
2022-10-20T20:44:10.094Z,98379.28
2022-10-20T20:46:58.522Z,98374.75
2022-10-20T20:49:53.686Z,98372.25
2022-10-20T20:52:44.212Z,98368.09
2022-10-20T20:55:40.919Z,98366.44
2022-10-20T20:58:30.476Z,98359.59
2022-10-20T21:01:24.978Z,98353.59
2022-10-20T21:04:13.059Z,98342.94
2022-10-20T21:07:02.479Z,98327.28
2022-10-20T21:09:50.464Z,98315.31
2022-10-20T21:12:41.355Z,98315.31
2022-10-20T21:15:47.720Z,98310.78
2022-10-20T21:22:30.996Z,98329.59
2022-10-20T21:26:09.511Z,98352.91
2022-10-20T21:29:02.403Z,98345.25
2022-10-20T21:32:02.535Z,98340.09
2022-10-20T21:35:20.795Z,98336.25
2022-10-20T21:38:51.116Z,98348.22
2022-10-20T21:41:50.056Z,98369.00
2022-10-20T21:45:31.302Z,98367.34
2022-10-20T21:48:19.356Z,98388.50
2022-10-20T21:51:14.856Z,98386.16
2022-10-20T21:54:05.496Z,98384.34
2022-10-20T21:57:01.765Z,98387.13
2022-10-20T21:59:50.563Z,98391.06
2022-10-20T22:02:38.449Z,98398.41
2022-10-20T22:05:25.978Z,98380.91
2022-10-20T22:08:14.954Z,98366.94
2022-10-20T22:11:08.077Z,98352.94
2022-10-20T22:13:56.344Z,98339.78
2022-10-20T22:16:44.628Z,98330.31
2022-10-20T22:19:31.941Z,98333.13
2022-10-20T22:22:19.374Z,98330.63
2022-10-20T22:25:09.955Z,98329.13
2022-10-20T22:27:57.420Z,98334.63
2022-10-20T22:30:44.731Z,98330.25
2022-10-20T22:33:32.426Z,98323.97
2022-10-20T22:36:20.915Z,98298.47
2022-10-20T22:39:09.619Z,98307.47
2022-10-20T22:41:58.725Z,98301.16
2022-10-20T22:44:47.802Z,98305.50
2022-10-20T22:47:35.070Z,98317.13
2022-10-20T22:50:22.706Z,98310.81
2022-10-20T22:53:10.760Z,98306.47
2022-10-20T22:56:06.554Z,98305.66
2022-10-20T22:58:55.732Z,98317.81
2022-10-20T23:01:45.547Z,98326.63
2022-10-20T23:04:32.883Z,98324.78
2022-10-20T23:07:20.391Z,98301.00
2022-10-20T23:10:12.779Z,98309.97
2022-10-20T23:13:00.252Z,98302.16
2022-10-20T23:15:53.187Z,98295.16
2022-10-20T23:18:41.376Z,98295.97
2022-10-20T23:21:29.240Z,98304.16
2022-10-20T23:24:16.932Z,98307.78
2022-10-20T23:27:04.608Z,98311.28
2022-10-20T23:29:52.289Z,98313.28
2022-10-20T23:32:41.095Z,98302.78
2022-10-20T23:35:29.039Z,98295.97
2022-10-20T23:38:16.424Z,98299.78
2022-10-20T23:41:04.292Z,98303.59
2022-10-20T23:43:51.611Z,98284.16
2022-10-20T23:46:39.100Z,98280.81
2022-10-20T23:49:27.953Z,98283.63
2022-10-20T23:52:15.599Z,98274.78
2022-10-20T23:55:04.310Z,98272.13
2022-10-20T23:57:51.948Z,98272.13
